Time;durP1;ratioP1;P1;durP2;ratioP2;P2;SDS_P1;SDS_P2;PMS_P1;PMS_P2;Temp;Humidity;BMP_temperature;BMP_pressure;BME280_temperature;BME280_humidity;BME280_pressure;Samples;Min_cycle;Max_cycle;Signal;HPM_P1;HPM_P2
2023/01/16 00:00:51;;;;;;;;;;;;;;;;;;5097316;28;19916;-69
2023/01/16 00:03:17;;;;;;;;;;;;;;;;;;5097857;28;19915;-68
2023/01/16 00:05:43;;;;;;;;;;;;;;;;;;5096194;28;20007;-68
2023/01/16 00:08:09;;;;;;;;;;;;;;;;;;5097114;28;19912;-68
2023/01/16 00:10:35;;;;;;;;;;;;;;;;;;5096127;28;19915;-68
2023/01/16 00:13:01;;;;;;;;;;;;;;;;;;5097373;28;20038;-68
2023/01/16 00:15:27;;;;;;;;;;;;;;;;;;5095603;28;19919;-68
2023/01/16 00:17:53;;;;;;;;;;;;;;;;;;5097242;28;19908;-68
2023/01/16 00:20:19;;;;;;;;;;;;;;;;;;5096937;28;19912;-69
2023/01/16 00:22:45;;;;;;;;;;;;;;;;;;5096746;28;19966;-68
2023/01/16 00:25:10;;;;;;;;;;;;;;;;;;5097128;28;20355;-69
2023/01/16 00:27:36;;;;;;;;;;;;;;;;;;5096091;28;20268;-69
2023/01/16 00:30:02;;;;;;;;;;;;;;;;;;5095401;28;20379;-69
2023/01/16 00:32:28;;;;;;;;;;;;;;;;;;5097041;28;20356;-69
2023/01/16 00:34:54;;;;;;;;;;;;;;;;;;5097164;28;20375;-68
2023/01/16 00:37:20;;;;;;;;;;;;;;;;;;5096495;28;20006;-69
2023/01/16 00:39:46;;;;;;;;;;;;;;;;;;5095879;28;19915;-68
2023/01/16 00:42:12;;;;;;;;;;;;;;;;;;5096927;28;19923;-70
2023/01/16 00:44:38;;;;;;;;;;;;;;;;;;5096376;28;19916;-69
2023/01/16 00:47:05;;;;;;;;;;;;;;;;;;5096658;28;19912;-68
2023/01/16 00:49:31;;;;;;;;;;;;;;;;;;5096837;28;19908;-69
2023/01/16 00:51:56;;;;;;;;;;;;;;;;;;5094976;28;19914;-70
2023/01/16 00:54:22;;;;;;;;;;;;;;;;;;5096141;28;19915;-69
2023/01/16 00:56:48;;;;;;;;;;;;;;;;;;5095248;28;19908;-69
2023/01/16 00:59:14;;;;;;;;;;;;;;;;;;5096162;28;20257;-69
2023/01/16 01:01:40;;;;;;;;;;;;;;;;;;5095122;28;20429;-69
2023/01/16 01:04:06;;;;;;;;;;;;;;;;;;5096256;28;20415;-68
2023/01/16 01:06:32;;;;;;;;;;;;;;;;;;5095063;28;19908;-68
2023/01/16 01:08:58;;;;;;;;;;;;;;;;;;5096260;28;19908;-68
2023/01/16 01:11:24;;;;;;;;;;;;;;;;;;5095984;28;20352;-68
2023/01/16 01:13:50;;;;;;;;;;;;;;;;;;5096203;28;19943;-68
2023/01/16 01:16:16;;;;;;;;;;;;;;;;;;5094829;28;20382;-68
2023/01/16 01:18:42;;;;;;;;;;;;;;;;;;5095743;28;19961;-68
2023/01/16 01:21:08;;;;;;;;;;;;;;;;;;5095769;28;19927;-68
2023/01/16 01:23:34;;;;;;;;;;;;;;;;;;5095960;28;19912;-71
2023/01/16 01:26:00;;;;;;;;;;;;;;;;;;5095572;28;19919;-68
2023/01/16 01:28:26;;;;;;;;;;;;;;;;;;5094552;28;19908;-68
2023/01/16 01:30:52;;;;;;;;;;;;;;;;;;5095887;28;19922;-68
2023/01/16 01:33:18;;;;;;;;;;;;;;;;;;5094105;28;19990;-69
2023/01/16 01:35:44;;;;;;;;;;;;;;;;;;5095806;28;19920;-69
2023/01/16 01:38:10;;;;;;;;;;;;;;;;;;5095694;28;20364;-67
2023/01/16 01:40:36;;;;;;;;;;;;;;;;;;5093797;28;19917;-68
2023/01/16 01:43:02;;;;;;;;;;;;;;;;;;5094313;28;20416;-68
2023/01/16 01:45:28;;;;;;;;;;;;;;;;;;5095571;28;19908;-67
2023/01/16 01:47:54;;;;;;;;;;;;;;;;;;5093712;28;20002;-68
2023/01/16 01:50:20;;;;;;;;;;;;;;;;;;5095443;28;19908;-68
2023/01/16 01:52:46;;;;;;;;;;;;;;;;;;5094249;28;19981;-68
2023/01/16 01:55:12;;;;;;;;;;;;;;;;;;5093653;28;20300;-69
2023/01/16 01:57:38;;;;;;;;;;;;;;;;;;5095350;28;20276;-68
2023/01/16 02:00:04;;;;;;;;;;;;;;;;;;5095557;28;20331;-68
2023/01/16 02:02:30;;;;;;;;;;;;;;;;;;5094801;28;19916;-69
2023/01/16 02:04:59;;;;;;;;;;;;;;;;;;5093065;28;19991;-69
2023/01/16 02:07:24;;;;;;;;;;;;;;;;;;5094993;28;20279;-68
2023/01/16 02:09:50;;;;;;;;;;;;;;;;;;5095137;28;19914;-68
2023/01/16 02:12:17;;;;;;;;;;;;;;;;;;5093808;28;20011;-68
2023/01/16 02:14:42;;;;;;;;;;;;;;;;;;5094601;28;19948;-68
2023/01/16 02:19:53;;;;;;;;;;;;;;;;;;5094721;28;19915;-67
2023/01/16 02:22:19;;;;;;;;;;;;;;;;;;5093096;28;19916;-68
2023/01/16 02:24:45;;;;;;;;;;;;;;;;;;5093543;28;19947;-69
2023/01/16 02:27:11;;;;;;;;;;;;;;;;;;5093478;28;20427;-69
2023/01/16 02:29:37;;;;;;;;;;;;;;;;;;5093097;28;19909;-69
2023/01/16 02:32:03;;;;;;;;;;;;;;;;;;5094700;28;20421;-69
2023/01/16 02:34:29;;;;;;;;;;;;;;;;;;5094604;28;19909;-68
2023/01/16 02:36:54;;;;;;;;;;;;;;;;;;5094385;28;19908;-68
2023/01/16 02:39:20;;;;;;;;;;;;;;;;;;5093245;28;19944;-68
2023/01/16 02:41:46;;;;;;;;;;;;;;;;;;5094438;28;19916;-68
2023/01/16 02:44:12;;;;;;;;;;;;;;;;;;5094334;28;19915;-68
2023/01/16 02:46:38;;;;;;;;;;;;;;;;;;5094464;28;19961;-68
2023/01/16 02:49:04;;;;;;;;;;;;;;;;;;5094742;28;19962;-68
2023/01/16 02:51:30;;;;;;;;;;;;;;;;;;5094008;28;19908;-68
2023/01/16 02:53:56;;;;;;;;;;;;;;;;;;5093024;28;19908;-69
2023/01/16 02:56:22;;;;;;;;;;;;;;;;;;5094526;28;20356;-68
2023/01/16 02:58:48;;;;;;;;;;;;;;;;;;5092528;28;20273;-68
2023/01/16 03:01:14;;;;;;;;;;;;;;;;;;5094159;28;20394;-68
2023/01/16 03:03:40;;;;;;;;;;;;;;;;;;5092553;28;20318;-68
2023/01/16 03:06:06;;;;;;;;;;;;;;;;;;5092853;28;19908;-68
2023/01/16 03:08:32;;;;;;;;;;;;;;;;;;5094131;28;19951;-68
2023/01/16 03:10:58;;;;;;;;;;;;;;;;;;5092390;28;20272;-68
2023/01/16 03:13:24;;;;;;;;;;;;;;;;;;5094579;28;19947;-67
2023/01/16 03:15:49;;;;;;;;;;;;;;;;;;5092587;28;19947;-68
2023/01/16 03:18:15;;;;;;;;;;;;;;;;;;5093651;28;19908;-68
2023/01/16 03:20:41;;;;;;;;;;;;;;;;;;5092507;28;19928;-68
2023/01/16 03:23:07;;;;;;;;;;;;;;;;;;5094119;28;20418;-68
2023/01/16 03:25:33;;;;;;;;;;;;;;;;;;5093848;28;20370;-68
2023/01/16 03:27:59;;;;;;;;;;;;;;;;;;5092631;28;20387;-69
2023/01/16 03:30:25;;;;;;;;;;;;;;;;;;5093953;28;20356;-68
2023/01/16 03:32:51;;;;;;;;;;;;;;;;;;5093542;28;19910;-68
2023/01/16 03:35:17;;;;;;;;;;;;;;;;;;5093892;28;19909;-68
2023/01/16 03:37:43;;;;;;;;;;;;;;;;;;5093803;28;19908;-68
2023/01/16 03:40:09;;;;;;;;;;;;;;;;;;5093399;28;19950;-68
2023/01/16 03:42:35;;;;;;;;;;;;;;;;;;5093731;28;20292;-68
2023/01/16 03:45:01;;;;;;;;;;;;;;;;;;5093694;28;19915;-68
2023/01/16 03:47:27;;;;;;;;;;;;;;;;;;5093354;28;20261;-68
2023/01/16 03:49:53;;;;;;;;;;;;;;;;;;5093773;28;20295;-68
2023/01/16 03:52:19;;;;;;;;;;;;;;;;;;5093647;28;19908;-68
2023/01/16 03:54:45;;;;;;;;;;;;;;;;;;5093247;28;19931;-68
2023/01/16 03:57:10;;;;;;;;;;;;;;;;;;5093654;28;19908;-68
2023/01/16 03:59:36;;;;;;;;;;;;;;;;;;5093590;28;19947;-68
2023/01/16 04:02:02;;;;;;;;;;;;;;;;;;5093152;28;19916;-68
2023/01/16 04:04:28;;;;;;;;;;;;;;;;;;5093525;28;20261;-68
2023/01/16 04:06:54;;;;;;;;;;;;;;;;;;5093535;28;20268;-68
2023/01/16 04:09:20;;;;;;;;;;;;;;;;;;5093107;28;20317;-69
2023/01/16 04:11:46;;;;;;;;;;;;;;;;;;5093585;28;20245;-69
2023/01/16 04:14:12;;;;;;;;;;;;;;;;;;5093135;28;19912;-68
2023/01/16 04:16:39;;;;;;;;;;;;;;;;;;5093472;28;19955;-68
2023/01/16 04:19:05;;;;;;;;;;;;;;;;;;5092124;28;20008;-68
2023/01/16 04:21:31;;;;;;;;;;;;;;;;;;5092725;28;20052;-68
2023/01/16 04:23:57;;;;;;;;;;;;;;;;;;5093319;28;19915;-69
2023/01/16 04:26:23;;;;;;;;;;;;;;;;;;5092129;28;19908;-68
2023/01/16 04:28:54;;;;;;;;;;;;;;;;;;5093380;28;19908;-67
2023/01/16 04:31:20;;;;;;;;;;;;;;;;;;5097119;28;19994;-70
2023/01/16 04:33:46;;;;;;;;;;;;;;;;;;5096995;28;19951;-67
2023/01/16 04:36:12;;;;;;;;;;;;;;;;;;5096567;28;19923;-68
2023/01/16 04:38:38;;;;;;;;;;;;;;;;;;5095588;28;19915;-68
2023/01/16 04:41:04;;;;;;;;;;;;;;;;;;5096757;28;19916;-68
2023/01/16 04:43:30;;;;;;;;;;;;;;;;;;5095136;28;19908;-69
2023/01/16 04:45:56;;;;;;;;;;;;;;;;;;5096804;28;19908;-69
2023/01/16 04:48:22;;;;;;;;;;;;;;;;;;5095403;28;19908;-69
2023/01/16 04:50:48;;;;;;;;;;;;;;;;;;5096251;28;19999;-69
2023/01/16 04:53:13;;;;;;;;;;;;;;;;;;5096795;28;19912;-69
2023/01/16 04:55:39;;;;;;;;;;;;;;;;;;5095518;28;19969;-69
2023/01/16 04:58:05;;;;;;;;;;;;;;;;;;5096789;28;19991;-68
2023/01/16 05:00:31;;;;;;;;;;;;;;;;;;5096496;28;19908;-69
2023/01/16 05:02:57;;;;;;;;;;;;;;;;;;5096478;28;19908;-70
2023/01/16 05:05:23;;;;;;;;;;;;;;;;;;5096187;28;19912;-70
2023/01/16 05:08:15;;;;;;;;;;;;;;;;;;5095113;28;19912;-69
2023/01/16 05:10:35;;;;;;;;;;;;;;;;;;5095940;28;19973;-69
2023/01/16 05:13:01;;;;;;;;;;;;;;;;;;5094999;28;19908;-69
2023/01/16 05:15:27;;;;;;;;;;;;;;;;;;5096200;28;19908;-69
2023/01/16 05:17:54;;;;;;;;;;;;;;;;;;5095759;28;19908;-70
2023/01/16 05:20:20;;;;;;;;;;;;;;;;;;5095930;28;19920;-68
2023/01/16 05:22:46;;;;;;;;;;;;;;;;;;5096286;28;19919;-69
2023/01/16 05:25:11;;;;;;;;;;;;;;;;;;5095699;28;19908;-69
2023/01/16 05:27:37;;;;;;;;;;;;;;;;;;5095954;28;19961;-69
2023/01/16 05:30:03;;;;;;;;;;;;;;;;;;5095892;28;19912;-69
2023/01/16 05:32:29;;;;;;;;;;;;;;;;;;5095991;28;19908;-69
2023/01/16 05:34:55;;;;;;;;;;;;;;;;;;5096028;28;20221;-69
2023/01/16 05:37:21;;;;;;;;;;;;;;;;;;5096334;28;20264;-69
2023/01/16 05:39:47;;;;;;;;;;;;;;;;;;5095589;28;20364;-69
2023/01/16 05:42:24;;;;;;;;;;;;;;;;;;5095685;28;20427;-69
2023/01/16 05:44:50;;;;;;;;;;;;;;;;;;5095496;28;19908;-69
2023/01/16 05:47:16;;;;;;;;;;;;;;;;;;5095081;28;19908;-68
2023/01/16 05:49:42;;;;;;;;;;;;;;;;;;5094241;28;19908;-69
2023/01/16 05:52:08;;;;;;;;;;;;;;;;;;5095493;28;19908;-67
2023/01/16 05:54:34;;;;;;;;;;;;;;;;;;5095061;28;19918;-69
2023/01/16 05:57:00;;;;;;;;;;;;;;;;;;5095485;28;19962;-69
2023/01/16 05:59:25;;;;;;;;;;;;;;;;;;5095292;28;19915;-68
2023/01/16 06:01:51;;;;;;;;;;;;;;;;;;5094793;28;19916;-68
2023/01/16 06:04:19;;;;;;;;;;;;;;;;;;5095350;28;19908;-68
2023/01/16 06:06:44;;;;;;;;;;;;;;;;;;5094794;28;19908;-69
2023/01/16 06:09:10;;;;;;;;;;;;;;;;;;5095222;28;19908;-68
2023/01/16 06:11:36;;;;;;;;;;;;;;;;;;5095196;28;19908;-68
2023/01/16 06:14:04;;;;;;;;;;;;;;;;;;5094692;28;20056;-69
2023/01/16 06:16:30;;;;;;;;;;;;;;;;;;5095015;28;19912;-68
2023/01/16 06:18:56;;;;;;;;;;;;;;;;;;5094974;28;19922;-67
2023/01/16 06:21:22;;;;;;;;;;;;;;;;;;5094319;28;19927;-68
2023/01/16 06:23:48;;;;;;;;;;;;;;;;;;5094855;28;19908;-69
2023/01/16 06:26:14;;;;;;;;;;;;;;;;;;5095060;28;19912;-68
2023/01/16 06:28:40;;;;;;;;;;;;;;;;;;5093115;28;19915;-69
2023/01/16 06:31:06;;;;;;;;;;;;;;;;;;5093515;28;20033;-69
2023/01/16 06:33:31;;;;;;;;;;;;;;;;;;5094697;28;19930;-69
2023/01/16 06:35:57;;;;;;;;;;;;;;;;;;5094277;28;20340;-68
2023/01/16 06:38:23;;;;;;;;;;;;;;;;;;5094584;28;20299;-68
2023/01/16 06:40:49;;;;;;;;;;;;;;;;;;5094818;28;19960;-68
2023/01/16 06:43:16;;;;;;;;;;;;;;;;;;5094268;28;19908;-68
2023/01/16 06:45:44;;;;;;;;;;;;;;;;;;5093269;28;19908;-69
2023/01/16 06:48:10;;;;;;;;;;;;;;;;;;5093176;28;19908;-69
2023/01/16 06:50:35;;;;;;;;;;;;;;;;;;5093656;28;19998;-69
2023/01/16 06:53:01;;;;;;;;;;;;;;;;;;5094498;28;19915;-68
2023/01/16 06:55:27;;;;;;;;;;;;;;;;;;5093110;28;19915;-69
2023/01/16 06:57:53;;;;;;;;;;;;;;;;;;5094278;28;20453;-69
2023/01/16 07:00:19;;;;;;;;;;;;;;;;;;5094312;28;19908;-69
2023/01/16 07:02:45;;;;;;;;;;;;;;;;;;5094276;28;19947;-69
2023/01/16 07:05:12;;;;;;;;;;;;;;;;;;5093001;28;19923;-68
2023/01/16 07:07:38;;;;;;;;;;;;;;;;;;5092923;28;19908;-69
2023/01/16 07:10:04;;;;;;;;;;;;;;;;;;5093791;28;19908;-68
2023/01/16 07:12:30;;;;;;;;;;;;;;;;;;5091798;28;19938;-67
2023/01/16 07:23:11;;;;;;;;;;;;;;;;;;5072883;28;19915;-69
2023/01/16 07:25:36;;;;;;;;;;;;;;;;;;5073218;28;19912;-72
2023/01/16 07:28:02;;;;;;;;;;;;;;;;;;5079033;28;19908;-71
2023/01/16 07:30:28;;;;;;;;;;;;;;;;;;5093713;28;19908;-71
2023/01/16 07:32:54;;;;;;;;;;;;;;;;;;5091171;28;19951;-71
2023/01/16 07:35:20;;;;;;;;;;;;;;;;;;5093042;28;20496;-69
2023/01/16 07:37:46;;;;;;;;;;;;;;;;;;5091758;28;20416;-70
2023/01/16 07:40:12;;;;;;;;;;;;;;;;;;5092476;28;19954;-70
2023/01/16 07:42:38;;;;;;;;;;;;;;;;;;5091388;28;19927;-69
2023/01/16 07:45:04;;;;;;;;;;;;;;;;;;5092402;28;19919;-69
2023/01/16 07:47:30;;;;;;;;;;;;;;;;;;5091397;28;19909;-70
2023/01/16 07:49:58;;;;;;;;;;;;;;;;;;5092815;28;20011;-67
2023/01/16 07:52:24;;;;;;;;;;;;;;;;;;5092863;28;20007;-68
2023/01/16 07:54:50;;;;;;;;;;;;;;;;;;5093372;28;19961;-67
2023/01/16 07:57:16;;;;;;;;;;;;;;;;;;5091894;28;19915;-68
2023/01/16 07:59:42;;;;;;;;;;;;;;;;;;5091652;28;19915;-69
2023/01/16 08:02:08;;;;;;;;;;;;;;;;;;5090405;28;19916;-71
2023/01/16 08:04:34;;;;;;;;;;;;;;;;;;5093285;28;19935;-69
2023/01/16 08:07:00;;;;;;;;;;;;;;;;;;5094699;28;19912;-70
2023/01/16 08:09:26;;;;;;;;;;;;;;;;;;5095215;28;19908;-69
2023/01/16 08:11:52;;;;;;;;;;;;;;;;;;5095103;28;19916;-68
2023/01/16 08:14:18;;;;;;;;;;;;;;;;;;5093639;28;20269;-70
2023/01/16 08:16:44;;;;;;;;;;;;;;;;;;5093047;28;19966;-70
2023/01/16 08:19:10;;;;;;;;;;;;;;;;;;5095061;28;19916;-69
2023/01/16 08:21:35;;;;;;;;;;;;;;;;;;5095668;28;19920;-71
2023/01/16 08:24:01;;;;;;;;;;;;;;;;;;5096908;28;19909;-70
2023/01/16 08:26:28;;;;;;;;;;;;;;;;;;5097132;28;19934;-69
2023/01/16 08:28:54;;;;;;;;;;;;;;;;;;5091947;28;19919;-69
2023/01/16 08:31:20;;;;;;;;;;;;;;;;;;5095066;28;19908;-69
2023/01/16 08:33:47;;;;;;;;;;;;;;;;;;5096111;28;19995;-69
2023/01/16 08:36:13;;;;;;;;;;;;;;;;;;5094729;28;19909;-73
2023/01/16 08:38:38;;;;;;;;;;;;;;;;;;5093113;28;19912;-72
2023/01/16 08:41:04;;;;;;;;;;;;;;;;;;5096154;28;20253;-70
2023/01/16 08:51:45;;;;;;;;;;;;;;;;;;5100671;28;20268;-68
2023/01/16 08:54:11;;;;;;;;;;;;;;;;;;5093300;28;20276;-69
2023/01/16 08:56:42;;;;;;;;;;;;;;;;;;5092559;28;19915;-68
2023/01/16 08:59:08;;;;;;;;;;;;;;;;;;5094546;28;19915;-69
2023/01/16 09:01:34;;;;;;;;;;;;;;;;;;5093985;28;20291;-70
2023/01/16 09:04:00;;;;;;;;;;;;;;;;;;5094566;28;20360;-69
2023/01/16 09:06:26;;;;;;;;;;;;;;;;;;5095160;28;19908;-69
2023/01/16 09:08:52;;;;;;;;;;;;;;;;;;5093564;28;19953;-71
2023/01/16 09:14:07;;;;;;;;;;;;;;;;;;5072493;28;20356;-69
2023/01/16 09:16:33;;;;;;;;;;;;;;;;;;5092736;28;19919;-70
2023/01/16 09:18:59;;;;;;;;;;;;;;;;;;5092689;28;19908;-69
2023/01/16 09:21:25;;;;;;;;;;;;;;;;;;5092951;28;20380;-70
2023/01/16 09:23:51;;;;;;;;;;;;;;;;;;5091002;28;19931;-68
2023/01/16 09:26:17;;;;;;;;;;;;;;;;;;5092520;28;19915;-66
2023/01/16 09:28:43;;;;;;;;;;;;;;;;;;5090746;28;19912;-68
2023/01/16 09:31:09;;;;;;;;;;;;;;;;;;5089865;28;19963;-68
2023/01/16 09:33:36;;;;;;;;;;;;;;;;;;5090952;28;20040;-71
2023/01/16 09:36:02;;;;;;;;;;;;;;;;;;5094193;27;20365;-69
2023/01/16 09:38:28;;;;;;;;;;;;;;;;;;5090766;28;19969;-69
2023/01/16 09:40:54;;;;;;;;;;;;;;;;;;5090780;28;19923;-70
2023/01/16 09:43:35;;;;;;;;;;;;;;;;;;5090848;28;20318;-68
2023/01/16 09:46:01;;;;;;;;;;;;;;;;;;5090131;28;19912;-70
2023/01/16 09:48:27;;;;;;;;;;;;;;;;;;5091786;28;19923;-69
2023/01/16 09:50:53;;;;;;;;;;;;;;;;;;5092593;28;20012;-71
2023/01/16 09:58:49;;;;;;;;;;;;;;;;;;5092241;28;19953;-69
2023/01/16 10:01:15;;;;;;;;;;;;;;;;;;5091032;28;19923;-71
2023/01/16 10:03:43;;;;;;;;;;;;;;;;;;5092454;28;19915;-70
2023/01/16 10:06:10;;;;;;;;;;;;;;;;;;5091502;28;19958;-70
2023/01/16 10:08:36;;;;;;;;;;;;;;;;;;5094117;28;20280;-68
2023/01/16 10:11:01;;;;;;;;;;;;;;;;;;5093751;28;19918;-71
2023/01/16 10:13:28;;;;;;;;;;;;;;;;;;5091996;28;20033;-71
2023/01/16 10:15:53;;;;;;;;;;;;;;;;;;5090382;28;19935;-68
2023/01/16 10:18:19;;;;;;;;;;;;;;;;;;5089790;28;19908;-67
2023/01/16 10:20:46;;;;;;;;;;;;;;;;;;5091107;28;19928;-68
2023/01/16 10:23:12;;;;;;;;;;;;;;;;;;5091355;28;20002;-68
2023/01/16 10:25:38;;;;;;;;;;;;;;;;;;5089792;28;19999;-68
2023/01/16 10:28:04;;;;;;;;;;;;;;;;;;5091570;28;19912;-69
2023/01/16 10:30:30;;;;;;;;;;;;;;;;;;5093576;28;19919;-70
2023/01/16 10:32:56;;;;;;;;;;;;;;;;;;5113698;28;19969;-68
2023/01/16 10:35:22;;;;;;;;;;;;;;;;;;5102481;28;19908;-69
2023/01/16 10:37:49;;;;;;;;;;;;;;;;;;5092243;28;19908;-68
2023/01/16 10:40:15;;;;;;;;;;;;;;;;;;5091478;28;20317;-69
2023/01/16 10:50:55;;;;;;;;;;;;;;;;;;5092757;28;19958;-67
2023/01/16 10:53:21;;;;;;;;;;;;;;;;;;5093204;28;19908;-68
2023/01/16 10:55:48;;;;;;;;;;;;;;;;;;5090759;28;20020;-67
2023/01/16 10:58:14;;;;;;;;;;;;;;;;;;5093471;28;19912;-76
2023/01/16 11:00:40;;;;;;;;;;;;;;;;;;5093140;28;19909;-70
2023/01/16 11:03:05;;;;;;;;;;;;;;;;;;5091300;28;19908;-70
2023/01/16 11:05:31;;;;;;;;;;;;;;;;;;5092293;28;20004;-69
2023/01/16 11:07:57;;;;;;;;;;;;;;;;;;5091966;28;19908;-69
2023/01/16 11:10:23;;;;;;;;;;;;;;;;;;5093046;28;20542;-69
2023/01/16 11:18:28;;;;;;;;;;;;;;;;;;5106846;28;19914;-69
2023/01/16 11:20:54;;;;;;;;;;;;;;;;;;5104017;28;19931;-72
2023/01/16 11:23:20;;;;;;;;;;;;;;;;;;5088654;28;19912;-73
2023/01/16 11:25:47;;;;;;;;;;;;;;;;;;5090286;28;20003;-70
2023/01/16 11:28:13;;;;;;;;;;;;;;;;;;5091837;28;19915;-69
2023/01/16 11:30:39;;;;;;;;;;;;;;;;;;5091553;28;19908;-71
2023/01/16 11:33:07;;;;;;;;;;;;;;;;;;5090584;28;19915;-72
2023/01/16 11:35:33;;;;;;;;;;;;;;;;;;5090062;28;19908;-73
2023/01/16 11:37:59;;;;;;;;;;;;;;;;;;5089643;28;19908;-69
2023/01/16 11:40:25;;;;;;;;;;;;;;;;;;5094348;28;19908;-69
2023/01/16 11:48:23;;;;;;;;;;;;;;;;;;5094265;28;20409;-69
2023/01/16 11:50:49;;;;;;;;;;;;;;;;;;5094127;28;20509;-69
2023/01/16 11:53:15;;;;;;;;;;;;;;;;;;5092241;28;19939;-70
2023/01/16 11:55:41;;;;;;;;;;;;;;;;;;5091397;28;20032;-71
2023/01/16 11:58:07;;;;;;;;;;;;;;;;;;5092704;28;19916;-69
2023/01/16 12:00:33;;;;;;;;;;;;;;;;;;5093232;28;19912;-70
2023/01/16 12:02:59;;;;;;;;;;;;;;;;;;5093328;28;20058;-71
2023/01/16 12:08:10;;;;;;;;;;;;;;;;;;5093533;28;19915;-70
2023/01/16 12:10:37;;;;;;;;;;;;;;;;;;5095983;28;19908;-68
2023/01/16 12:15:49;;;;;;;;;;;;;;;;;;5097149;28;19970;-68
2023/01/16 12:18:15;;;;;;;;;;;;;;;;;;5095486;28;19908;-70
2023/01/16 12:20:41;;;;;;;;;;;;;;;;;;5093864;28;20061;-72
2023/01/16 12:23:07;;;;;;;;;;;;;;;;;;5096996;28;19912;-72
2023/01/16 12:25:33;;;;;;;;;;;;;;;;;;5097169;28;20017;-72
2023/01/16 12:27:59;;;;;;;;;;;;;;;;;;5096447;28;19996;-72
2023/01/16 12:30:25;;;;;;;;;;;;;;;;;;5097101;28;19915;-72
2023/01/16 12:32:51;;;;;;;;;;;;;;;;;;5096993;28;19930;-71
2023/01/16 12:35:17;;;;;;;;;;;;;;;;;;5096639;28;20395;-71
2023/01/16 12:37:43;;;;;;;;;;;;;;;;;;5095578;28;19934;-71
2023/01/16 12:40:09;;;;;;;;;;;;;;;;;;5096792;28;19992;-71
2023/01/16 12:45:19;;;;;;;;;;;;;;;;;;5096777;28;20371;-71
2023/01/16 12:47:45;;;;;;;;;;;;;;;;;;5096262;28;19912;-71
2023/01/16 12:50:11;;;;;;;;;;;;;;;;;;5095782;28;19912;-72
2023/01/16 12:52:37;;;;;;;;;;;;;;;;;;5095370;28;19946;-72
2023/01/16 12:55:03;;;;;;;;;;;;;;;;;;5094771;28;19916;-72
2023/01/16 12:57:29;;;;;;;;;;;;;;;;;;5096551;28;19908;-72
2023/01/16 12:59:55;;;;;;;;;;;;;;;;;;5096483;28;19962;-72
2023/01/16 13:02:21;;;;;;;;;;;;;;;;;;5094791;28;19916;-71
2023/01/16 13:04:47;;;;;;;;;;;;;;;;;;5096460;28;19915;-71
2023/01/16 13:07:13;;;;;;;;;;;;;;;;;;5096401;28;19915;-71
2023/01/16 13:09:39;;;;;;;;;;;;;;;;;;5096002;28;19908;-72
2023/01/16 13:14:50;;;;;;;;;;;;;;;;;;5096382;28;19916;-71
2023/01/16 13:17:16;;;;;;;;;;;;;;;;;;5095864;28;19908;-71
2023/01/16 13:19:41;;;;;;;;;;;;;;;;;;5094860;28;19908;-71
2023/01/16 13:22:08;;;;;;;;;;;;;;;;;;5094640;28;20383;-71
2023/01/16 13:24:34;;;;;;;;;;;;;;;;;;5095698;28;19912;-71
2023/01/16 13:27:00;;;;;;;;;;;;;;;;;;5096004;28;20423;-71
2023/01/16 13:29:26;;;;;;;;;;;;;;;;;;5095971;28;20429;-72
2023/01/16 13:31:53;;;;;;;;;;;;;;;;;;5095490;28;19912;-72
2023/01/16 13:34:19;;;;;;;;;;;;;;;;;;5096042;28;19908;-72
2023/01/16 13:36:45;;;;;;;;;;;;;;;;;;5093929;28;19930;-71
2023/01/16 13:39:11;;;;;;;;;;;;;;;;;;5094435;28;19908;-70
2023/01/16 13:41:37;;;;;;;;;;;;;;;;;;5095748;28;19920;-71
2023/01/16 13:46:47;;;;;;;;;;;;;;;;;;5095259;28;20005;-70
2023/01/16 13:49:13;;;;;;;;;;;;;;;;;;5095488;28;20410;-71
2023/01/16 13:51:39;;;;;;;;;;;;;;;;;;5095256;28;19908;-71
2023/01/16 13:54:05;;;;;;;;;;;;;;;;;;5095497;28;19916;-71
2023/01/16 13:56:31;;;;;;;;;;;;;;;;;;5095395;28;19916;-71
2023/01/16 13:58:59;;;;;;;;;;;;;;;;;;5094920;28;19908;-72
2023/01/16 14:01:25;;;;;;;;;;;;;;;;;;5092944;28;19912;-72
2023/01/16 14:03:50;;;;;;;;;;;;;;;;;;5093992;28;20349;-72
2023/01/16 14:06:17;;;;;;;;;;;;;;;;;;5094809;28;20375;-71
2023/01/16 14:11:28;;;;;;;;;;;;;;;;;;5095239;28;20379;-70
2023/01/16 14:13:53;;;;;;;;;;;;;;;;;;5094736;28;19913;-70
2023/01/16 14:16:33;;;;;;;;;;;;;;;;;;5094905;28;20376;-71
2023/01/16 14:19:00;;;;;;;;;;;;;;;;;;5093244;28;19908;-71
2023/01/16 14:21:25;;;;;;;;;;;;;;;;;;5093461;28;19989;-70
2023/01/16 14:24:00;;;;;;;;;;;;;;;;;;5094936;28;20360;-70
2023/01/16 14:26:26;;;;;;;;;;;;;;;;;;5094383;28;20020;-70
2023/01/16 14:28:55;;;;;;;;;;;;;;;;;;5094653;28;19925;-72
2023/01/16 14:31:21;;;;;;;;;;;;;;;;;;5094544;28;19914;-73
2023/01/16 14:33:47;;;;;;;;;;;;;;;;;;5094194;28;19999;-72
2023/01/16 14:36:13;;;;;;;;;;;;;;;;;;5093324;28;19984;-72
2023/01/16 14:38:39;;;;;;;;;;;;;;;;;;5094653;28;19908;-71
2023/01/16 14:57:33;;;;;;;;;;;;;;;;;;5094276;28;19915;-72
2023/01/16 14:59:59;;;;;;;;;;;;;;;;;;5094653;28;19915;-72
2023/01/16 15:02:31;;;;;;;;;;;;;;;;;;5093789;28;19919;-71
2023/01/16 15:04:58;;;;;;;;;;;;;;;;;;5094426;28;20003;-72
2023/01/16 15:07:24;;;;;;;;;;;;;;;;;;5092952;28;19912;-72
2023/01/16 15:09:50;;;;;;;;;;;;;;;;;;5093728;28;20012;-71
2023/01/16 15:12:19;;;;;;;;;;;;;;;;;;5093778;28;19915;-72
2023/01/16 15:14:45;;;;;;;;;;;;;;;;;;5094292;28;20283;-71
2023/01/16 15:22:42;;;;;;;;;;;;;;;;;;5093080;28;20218;-72
2023/01/16 15:25:08;;;;;;;;;;;;;;;;;;5093879;28;20364;-72
2023/01/16 15:27:34;;;;;;;;;;;;;;;;;;5093844;28;19912;-72
2023/01/16 15:30:00;;;;;;;;;;;;;;;;;;5093630;28;19912;-72
2023/01/16 15:32:26;;;;;;;;;;;;;;;;;;5093848;28;19908;-73
2023/01/16 15:34:52;;;;;;;;;;;;;;;;;;5092468;28;19908;-71
2023/01/16 15:37:18;;;;;;;;;;;;;;;;;;5093387;28;20334;-70
2023/01/16 15:39:45;;;;;;;;;;;;;;;;;;5092451;28;20385;-72
2023/01/16 15:47:41;;;;;;;;;;;;;;;;;;5093868;28;19916;-71
2023/01/16 15:50:07;;;;;;;;;;;;;;;;;;5092546;28;20363;-71
2023/01/16 15:52:38;;;;;;;;;;;;;;;;;;5093442;28;19908;-70
2023/01/16 15:55:04;;;;;;;;;;;;;;;;;;5093726;28;19908;-71
2023/01/16 15:57:30;;;;;;;;;;;;;;;;;;5092219;28;19908;-70
2023/01/16 15:59:56;;;;;;;;;;;;;;;;;;5093662;28;19952;-71
2023/01/16 16:02:27;;;;;;;;;;;;;;;;;;5093424;28;19924;-71
2023/01/16 16:04:56;;;;;;;;;;;;;;;;;;5093277;28;19915;-70
2023/01/16 16:07:22;;;;;;;;;;;;;;;;;;5092299;28;19908;-72
2023/01/16 16:09:49;;;;;;;;;;;;;;;;;;5093464;28;19908;-72
2023/01/16 16:12:15;;;;;;;;;;;;;;;;;;5093039;28;19909;-70
2023/01/16 16:17:55;;;;;;;;;;;;;;;;;;5071225;28;19951;-71
2023/01/16 16:20:21;;;;;;;;;;;;;;;;;;5070952;28;19927;-73
2023/01/16 16:22:49;;;;;;;;;;;;;;;;;;5083120;28;19958;-72
2023/01/16 16:25:15;;;;;;;;;;;;;;;;;;5096271;28;19978;-71
2023/01/16 16:27:41;;;;;;;;;;;;;;;;;;5096845;28;19912;-71
2023/01/16 16:30:07;;;;;;;;;;;;;;;;;;5078952;28;19954;-72
2023/01/16 16:32:33;;;;;;;;;;;;;;;;;;5096571;28;19926;-72
2023/01/16 16:34:59;;;;;;;;;;;;;;;;;;5097202;28;19908;-72
2023/01/16 16:37:27;;;;;;;;;;;;;;;;;;5097006;28;19959;-73
2023/01/16 16:39:52;;;;;;;;;;;;;;;;;;5096524;28;20280;-73
2023/01/16 16:42:29;;;;;;;;;;;;;;;;;;5096949;28;19923;-72
2023/01/16 16:44:55;;;;;;;;;;;;;;;;;;5097141;28;19908;-72
2023/01/16 16:47:21;;;;;;;;;;;;;;;;;;5078259;28;19961;-73
2023/01/16 16:49:47;;;;;;;;;;;;;;;;;;5096722;28;19909;-72
2023/01/16 16:52:13;;;;;;;;;;;;;;;;;;5096749;28;19908;-72
2023/01/16 16:54:40;;;;;;;;;;;;;;;;;;5096557;28;20372;-72
2023/01/16 16:57:06;;;;;;;;;;;;;;;;;;5078435;28;20356;-73
2023/01/16 16:59:37;;;;;;;;;;;;;;;;;;5096574;28;19955;-73
2023/01/16 17:02:07;;;;;;;;;;;;;;;;;;5096153;28;19977;-73
2023/01/16 17:04:33;;;;;;;;;;;;;;;;;;5078346;28;19912;-73
2023/01/16 17:06:59;;;;;;;;;;;;;;;;;;5096383;28;20276;-73
2023/01/16 17:09:25;;;;;;;;;;;;;;;;;;5096093;28;20292;-72
2023/01/16 17:11:51;;;;;;;;;;;;;;;;;;5096305;28;19908;-71
2023/01/16 17:14:17;;;;;;;;;;;;;;;;;;5096208;28;19915;-71
2023/01/16 17:16:43;;;;;;;;;;;;;;;;;;5096019;28;19908;-72
2023/01/16 17:19:09;;;;;;;;;;;;;;;;;;5096093;28;19916;-72
2023/01/16 17:21:36;;;;;;;;;;;;;;;;;;5095743;28;20415;-72
2023/01/16 17:24:02;;;;;;;;;;;;;;;;;;5094423;28;19944;-71
2023/01/16 17:26:28;;;;;;;;;;;;;;;;;;5094731;28;20296;-71
2023/01/16 17:28:56;;;;;;;;;;;;;;;;;;5095525;28;19908;-71
2023/01/16 17:31:22;;;;;;;;;;;;;;;;;;5096012;28;19952;-71
2023/01/16 17:33:48;;;;;;;;;;;;;;;;;;5095824;28;19999;-71
2023/01/16 17:36:14;;;;;;;;;;;;;;;;;;5095398;28;19912;-71
2023/01/16 17:38:40;;;;;;;;;;;;;;;;;;5095719;28;19915;-71
2023/01/16 17:41:07;;;;;;;;;;;;;;;;;;5094369;28;20317;-72
2023/01/16 17:46:17;;;;;;;;;;;;;;;;;;5095674;28;19932;-71
2023/01/16 17:48:43;;;;;;;;;;;;;;;;;;5095670;28;19912;-71
2023/01/16 17:51:12;;;;;;;;;;;;;;;;;;5093893;28;20272;-73
2023/01/16 17:53:38;;;;;;;;;;;;;;;;;;5095567;28;19908;-73
2023/01/16 17:56:05;;;;;;;;;;;;;;;;;;5095543;28;20292;-73
2023/01/16 18:01:12;;;;;;;;;;;;;;;;;;5095415;28;20023;-73
2023/01/16 18:03:38;;;;;;;;;;;;;;;;;;5094118;28;19947;-73
2023/01/16 18:06:04;;;;;;;;;;;;;;;;;;5094997;28;19957;-73
2023/01/16 18:08:30;;;;;;;;;;;;;;;;;;5095179;28;20287;-73
2023/01/16 18:10:56;;;;;;;;;;;;;;;;;;5093820;28;19908;-74
2023/01/16 18:18:51;;;;;;;;;;;;;;;;;;5094787;28;19973;-72
2023/01/16 18:24:02;;;;;;;;;;;;;;;;;;5094991;28;20340;-72
2023/01/16 18:26:28;;;;;;;;;;;;;;;;;;5094407;28;19909;-72